Falken — SBCH — position and weather

sailwx.info

Track history (hours):
 
Tides and Currents Weather Stations Pressure Air Temp Water Temp Dewpoint Dewpoint Depression Visibility Wind Speed Wind Dir Waves Ship Positions

Falken (Sweden)

Last reported at 2019-Feb-13 10:48 UTC. Time now 2019-Feb-16 03:02 UTC.
Position N 28°08' W 015°25'.

Length 40 m; draft 4.2 m.

Type: Sailing vessel. MMSI: 265070000.

Date/timePositionNaut miles runAvg speedWind from/ knotsBaromVisibWave heightAir tempDewpointWater temp
2019-Feb-13 10:48N 28°08' W 015°25'0 0.0
2019-Feb-13 10:30N 28°08' W 015°25'0 0.2
2019-Feb-13 08:39N 28°07' W 015°25'0 0.3
2019-Feb-13 08:30N 28°07' W 015°25'3 0.1
2019-Feb-12 03:42N 28°10' W 015°23'2 7.5
2019-Feb-12 03:30N 28°12' W 015°24'4 7.8
2019-Feb-12 02:56N 28°12' W 015°29'3 7.8
2019-Feb-12 02:30N 28°12' W 015°33'4 7.6
2019-Feb-12 02:00N 28°12' W 015°37'4 7.2
2019-Feb-12 01:30N 28°12' W 015°41'3 6.8
2019-Feb-12 01:00N 28°11' W 015°45'3 6.8
2019-Feb-12 00:30N 28°09' W 015°48'3 6.5
2019-Feb-12 00:00N 28°07' W 015°51'3 7.0
2019-Feb-11 23:30N 28°06' W 015°55'3 6.9
2019-Feb-11 23:00N 28°04' W 015°58'4 7.0
2019-Feb-11 22:28N 28°02' W 016°02'3 6.9
2019-Feb-11 21:59N 28°00' W 016°05'3 7.0
2019-Feb-11 21:30N 27°58' W 016°08'4 7.3
2019-Feb-11 20:56N 27°56' W 016°12'3 7.4
2019-Feb-11 20:29N 27°54' W 016°15'4 6.7
2019-Feb-11 19:57N 27°53' W 016°19'2 5.3
2019-Feb-11 19:30N 27°53' W 016°21'2 4.0
2019-Feb-11 18:58N 27°53' W 016°24'3 7.4
2019-Feb-11 18:30N 27°54' W 016°27'4 7.1
2019-Feb-11 18:00N 27°55' W 016°31'28 1.0
2019-Feb-10 12:43N 28°03' W 017°02'30 3.6
2019-Feb-10 04:30N 27°58' W 016°29'4 7.7
2019-Feb-10 03:59N 27°59' W 016°24'4 7.4
2019-Feb-10 03:30N 27°60' W 016°21'11 4.7
2019-Feb-10 01:12N 28°09' W 016°14'1 4.1
2019-Feb-10 00:53N 28°10' W 016°14'2 3.6
2019-Feb-10 00:27N 28°12' W 016°14'1 3.2
2019-Feb-10 00:00N 28°13' W 016°13'1 3.0
2019-Feb-09 23:31N 28°14' W 016°13'2 3.1
2019-Feb-09 23:01N 28°16' W 016°13'2 3.4
2019-Feb-09 22:31N 28°17' W 016°12'2 3.8
2019-Feb-09 22:00N 28°19' W 016°11'2 3.6
2019-Feb-09 21:31N 28°21' W 016°10'2 3.0
2019-Feb-09 21:00N 28°22' W 016°10'1 2.3
2019-Feb-09 20:30N 28°23' W 016°09'1 2.1
2019-Feb-09 20:00N 28°24' W 016°09'1 1.7
2019-Feb-09 19:30N 28°25' W 016°09'1 1.9
2019-Feb-09 19:01N 28°26' W 016°09'1 1.6
2019-Feb-09 18:30N 28°27' W 016°09'1 1.8
2019-Feb-09 18:00N 28°28' W 016°10'1 1.5
2019-Feb-09 17:31N 28°28' W 016°11'1 1.0
2019-Feb-09 17:00N 28°29' W 016°11'2 3.3
2019-Feb-09 16:31N 28°28' W 016°12'2 3.7
2019-Feb-09 15:58N 28°28' W 016°15'0 0.0
2019-Feb-09 15:28N 28°28' W 016°15'0 0.0
2019-Feb-09 15:00N 28°28' W 016°15'0 0.0
2019-Feb-09 14:28N 28°28' W 016°15'0 0.1
2019-Feb-09 13:58N 28°28' W 016°15'0 0.0
2019-Feb-09 13:28N 28°28' W 016°15'0 0.0
2019-Feb-09 12:58N 28°28' W 016°15'0 0.0
2019-Feb-09 12:28N 28°28' W 016°15'0 0.0
2019-Feb-09 11:58N 28°28' W 016°15'0 0.0
2019-Feb-09 11:28N 28°28' W 016°15'0 0.0
2019-Feb-09 10:58N 28°28' W 016°15'0 0.0
2019-Feb-09 10:28N 28°28' W 016°15'0 0.0
2019-Feb-09 10:00N 28°28' W 016°15'0 0.0
2019-Feb-09 09:30N 28°28' W 016°15'0 0.2
2019-Feb-09 09:00N 28°28' W 016°15'0 0.0
2019-Feb-09 08:30N 28°28' W 016°15'0 0.0
2019-Feb-09 08:00N 28°28' W 016°15'0 0.0
2019-Feb-09 07:30N 28°28' W 016°15'0 0.0
2019-Feb-09 07:00N 28°28' W 016°15'0 0.0
2019-Feb-09 06:30N 28°28' W 016°15'0 0.0
2019-Feb-09 06:00N 28°28' W 016°15'0 0.0
2019-Feb-09 05:30N 28°28' W 016°15'0 0.0
2019-Feb-09 05:00N 28°28' W 016°15'0 0.0
2019-Feb-09 04:30N 28°28' W 016°15'0 0.0
2019-Feb-09 03:57N 28°28' W 016°15'0 0.0
2019-Feb-09 03:30N 28°28' W 016°15'0 0.0
2019-Feb-09 03:00N 28°28' W 016°15'0 0.0
2019-Feb-09 02:30N 28°28' W 016°15'0 0.0
2019-Feb-09 02:00N 28°28' W 016°15'0 0.0
2019-Feb-09 01:30N 28°28' W 016°15'0 0.0
2019-Feb-09 00:57N 28°28' W 016°15'0 0.0
2019-Feb-09 00:30N 28°28' W 016°15'0 0.0
2019-Feb-09 00:00N 28°28' W 016°15'0 0.0
2019-Feb-08 23:27N 28°28' W 016°15'0 0.0
2019-Feb-08 22:57N 28°28' W 016°15'0 0.0
2019-Feb-08 22:30N 28°28' W 016°15'0 0.0
2019-Feb-08 22:00N 28°28' W 016°15'0 0.0
2019-Feb-08 21:30N 28°28' W 016°15'0 0.0
2019-Feb-08 21:00N 28°28' W 016°15'0 0.0
2019-Feb-08 20:30N 28°28' W 016°15'0 0.0
2019-Feb-08 20:00N 28°28' W 016°15'0 0.0
2019-Feb-08 19:30N 28°28' W 016°15'0 0.0
2019-Feb-08 19:00N 28°28' W 016°15'0 0.0
2019-Feb-08 18:31N 28°28' W 016°15'1 1.8
2019-Feb-08 18:01N 28°27' W 016°14'4 7.6
2019-Feb-08 17:31N 28°24' W 016°12'3 5.4
2019-Feb-08 17:00N 28°22' W 016°10'1 1.4
2019-Feb-08 16:31N 28°21' W 016°10'2 3.9
2019-Feb-08 16:01N 28°20' W 016°09'0 0.9
2019-Feb-08 15:30N 28°20' W 016°08'2 4.0
2019-Feb-08 15:01N 28°18' W 016°07'3 5.6
2019-Feb-08 14:30N 28°16' W 016°04'4 6.4
2019-Feb-08 13:57N 28°14' W 016°01'  
Track history (hours):
 
Tides and Currents Weather Stations Pressure Air Temp Water Temp Dewpoint Dewpoint Depression Visibility Wind Speed Wind Dir Waves Ship Positions

Falken (Sweden)

Last reported at 2019-Feb-13 10:48 UTC. Time now 2019-Feb-16 03:02 UTC.
Position N 28°08' W 015°25'.

Length 40 m; draft 4.2 m.

Type: Sailing vessel. MMSI: 265070000.

Date/timePositionNaut miles runAvg speedWind from/ knotsBaromVisibWave heightAir tempDewpointWater temp
2019-Feb-13 10:48N 28°08' W 015°25'0 0.0
2019-Feb-13 10:30N 28°08' W 015°25'0 0.2
2019-Feb-13 08:39N 28°07' W 015°25'0 0.3
2019-Feb-13 08:30N 28°07' W 015°25'3 0.1
2019-Feb-12 03:42N 28°10' W 015°23'2 7.5
2019-Feb-12 03:30N 28°12' W 015°24'4 7.8
2019-Feb-12 02:56N 28°12' W 015°29'3 7.8
2019-Feb-12 02:30N 28°12' W 015°33'4 7.6
2019-Feb-12 02:00N 28°12' W 015°37'4 7.2
2019-Feb-12 01:30N 28°12' W 015°41'3 6.8
2019-Feb-12 01:00N 28°11' W 015°45'3 6.8
2019-Feb-12 00:30N 28°09' W 015°48'3 6.5
2019-Feb-12 00:00N 28°07' W 015°51'3 7.0
2019-Feb-11 23:30N 28°06' W 015°55'3 6.9
2019-Feb-11 23:00N 28°04' W 015°58'4 7.0
2019-Feb-11 22:28N 28°02' W 016°02'3 6.9
2019-Feb-11 21:59N 28°00' W 016°05'3 7.0
2019-Feb-11 21:30N 27°58' W 016°08'4 7.3
2019-Feb-11 20:56N 27°56' W 016°12'3 7.4
2019-Feb-11 20:29N 27°54' W 016°15'4 6.7
2019-Feb-11 19:57N 27°53' W 016°19'2 5.3
2019-Feb-11 19:30N 27°53' W 016°21'2 4.0
2019-Feb-11 18:58N 27°53' W 016°24'3 7.4
2019-Feb-11 18:30N 27°54' W 016°27'4 7.1
2019-Feb-11 18:00N 27°55' W 016°31'28 1.0
2019-Feb-10 12:43N 28°03' W 017°02'30 3.6
2019-Feb-10 04:30N 27°58' W 016°29'4 7.7
2019-Feb-10 03:59N 27°59' W 016°24'4 7.4
2019-Feb-10 03:30N 27°60' W 016°21'11 4.7
2019-Feb-10 01:12N 28°09' W 016°14'1 4.1
2019-Feb-10 00:53N 28°10' W 016°14'2 3.6
2019-Feb-10 00:27N 28°12' W 016°14'1 3.2
2019-Feb-10 00:00N 28°13' W 016°13'1 3.0
2019-Feb-09 23:31N 28°14' W 016°13'2 3.1
2019-Feb-09 23:01N 28°16' W 016°13'2 3.4
2019-Feb-09 22:31N 28°17' W 016°12'2 3.8
2019-Feb-09 22:00N 28°19' W 016°11'2 3.6
2019-Feb-09 21:31N 28°21' W 016°10'2 3.0
2019-Feb-09 21:00N 28°22' W 016°10'1 2.3
2019-Feb-09 20:30N 28°23' W 016°09'1 2.1
2019-Feb-09 20:00N 28°24' W 016°09'1 1.7
2019-Feb-09 19:30N 28°25' W 016°09'1 1.9
2019-Feb-09 19:01N 28°26' W 016°09'1 1.6
2019-Feb-09 18:30N 28°27' W 016°09'1 1.8
2019-Feb-09 18:00N 28°28' W 016°10'1 1.5
2019-Feb-09 17:31N 28°28' W 016°11'1 1.0
2019-Feb-09 17:00N 28°29' W 016°11'2 3.3
2019-Feb-09 16:31N 28°28' W 016°12'2 3.7
2019-Feb-09 15:58N 28°28' W 016°15'0 0.0
2019-Feb-09 15:28N 28°28' W 016°15'0 0.0
2019-Feb-09 15:00N 28°28' W 016°15'0 0.0
2019-Feb-09 14:28N 28°28' W 016°15'0 0.1
2019-Feb-09 13:58N 28°28' W 016°15'0 0.0
2019-Feb-09 13:28N 28°28' W 016°15'0 0.0
2019-Feb-09 12:58N 28°28' W 016°15'0 0.0
2019-Feb-09 12:28N 28°28' W 016°15'0 0.0
2019-Feb-09 11:58N 28°28' W 016°15'0 0.0
2019-Feb-09 11:28N 28°28' W 016°15'0 0.0
2019-Feb-09 10:58N 28°28' W 016°15'0 0.0
2019-Feb-09 10:28N 28°28' W 016°15'0 0.0
2019-Feb-09 10:00N 28°28' W 016°15'0 0.0
2019-Feb-09 09:30N 28°28' W 016°15'0 0.2
2019-Feb-09 09:00N 28°28' W 016°15'0 0.0
2019-Feb-09 08:30N 28°28' W 016°15'0 0.0
2019-Feb-09 08:00N 28°28' W 016°15'0 0.0
2019-Feb-09 07:30N 28°28' W 016°15'0 0.0
2019-Feb-09 07:00N 28°28' W 016°15'0 0.0
2019-Feb-09 06:30N 28°28' W 016°15'0 0.0
2019-Feb-09 06:00N 28°28' W 016°15'0 0.0
2019-Feb-09 05:30N 28°28' W 016°15'0 0.0
2019-Feb-09 05:00N 28°28' W 016°15'0 0.0
2019-Feb-09 04:30N 28°28' W 016°15'0 0.0
2019-Feb-09 03:57N 28°28' W 016°15'0 0.0
2019-Feb-09 03:30N 28°28' W 016°15'0 0.0
2019-Feb-09 03:00N 28°28' W 016°15'0 0.0
2019-Feb-09 02:30N 28°28' W 016°15'0 0.0
2019-Feb-09 02:00N 28°28' W 016°15'0 0.0
2019-Feb-09 01:30N 28°28' W 016°15'0 0.0
2019-Feb-09 00:57N 28°28' W 016°15'0 0.0
2019-Feb-09 00:30N 28°28' W 016°15'0 0.0
2019-Feb-09 00:00N 28°28' W 016°15'0 0.0
2019-Feb-08 23:27N 28°28' W 016°15'0 0.0
2019-Feb-08 22:57N 28°28' W 016°15'0 0.0
2019-Feb-08 22:30N 28°28' W 016°15'0 0.0
2019-Feb-08 22:00N 28°28' W 016°15'0 0.0
2019-Feb-08 21:30N 28°28' W 016°15'0 0.0
2019-Feb-08 21:00N 28°28' W 016°15'0 0.0
2019-Feb-08 20:30N 28°28' W 016°15'0 0.0
2019-Feb-08 20:00N 28°28' W 016°15'0 0.0
2019-Feb-08 19:30N 28°28' W 016°15'0 0.0
2019-Feb-08 19:00N 28°28' W 016°15'0 0.0
2019-Feb-08 18:31N 28°28' W 016°15'1 1.8
2019-Feb-08 18:01N 28°27' W 016°14'4 7.6
2019-Feb-08 17:31N 28°24' W 016°12'3 5.4
2019-Feb-08 17:00N 28°22' W 016°10'1 1.4
2019-Feb-08 16:31N 28°21' W 016°10'2 3.9
2019-Feb-08 16:01N 28°20' W 016°09'0 0.9
2019-Feb-08 15:30N 28°20' W 016°08'2 4.0
2019-Feb-08 15:01N 28°18' W 016°07'3 5.6
2019-Feb-08 14:30N 28°16' W 016°04'4 6.4
2019-Feb-08 13:57N 28°14' W 016°01'  

Dump ship's entire track history